Time;durP1;ratioP1;P1;durP2;ratioP2;P2;SDS_P1;SDS_P2;PMS_P1;PMS_P2;Temp;Humidity;BMP_temperature;BMP_pressure;BME280_temperature;BME280_humidity;BME280_pressure;Samples;Min_cycle;Max_cycle;Signal;HPM_P1;HPM_P2
2023/08/07 00:01:51;;;;;;;9.32;9.13;;;;;;;-141.02;100.00;107971.50;5134336;27;20192;-65
2023/08/07 00:04:19;;;;;;;8.35;8.15;;;;;;;-141.02;100.00;107971.50;5134041;27;20235;-64
2023/08/07 00:06:46;;;;;;;8.20;8.00;;;;;;;-141.02;100.00;107971.50;5133910;27;20236;-65
2023/08/07 00:09:13;;;;;;;7.97;7.78;;;;;;;-141.02;100.00;107971.50;5133948;27;20253;-64
2023/08/07 00:11:41;;;;;;;7.78;7.57;;;;;;;-141.02;100.00;107971.50;5133813;27;20333;-60
2023/08/07 00:14:08;;;;;;;8.00;7.80;;;;;;;-141.02;100.00;107971.50;5134073;27;20197;-64
2023/08/07 00:16:35;;;;;;;7.72;7.53;;;;;;;-141.02;100.00;107971.50;5133727;27;20271;-64
2023/08/07 00:19:03;;;;;;;7.72;7.53;;;;;;;-141.02;100.00;107971.50;5133621;27;20192;-62
2023/08/07 00:21:31;;;;;;;7.90;7.70;;;;;;;-141.02;100.00;107971.50;5133952;27;20227;-63
2023/08/07 00:34:04;;;;;;;7.25;7.05;;;;;;;-141.02;100.00;107971.50;5133823;27;20199;-64
2023/08/07 00:36:34;;;;;;;7.20;7.00;;;;;;;-141.02;100.00;107971.50;5133695;27;20219;-65
2023/08/07 00:39:03;;;;;;;7.20;7.00;;;;;;;-141.02;100.00;107971.50;5133449;27;20271;-62
2023/08/07 00:41:30;;;;;;;7.18;6.97;;;;;;;-141.02;100.00;107971.50;5133280;27;20192;-62
2023/08/07 00:44:03;;;;;;;6.90;6.70;;;;;;;-141.02;100.00;107971.50;5133626;27;20279;-64
2023/08/07 00:46:31;;;;;;;7.10;6.90;;;;;;;-141.02;100.00;107971.50;5133548;27;20227;-65
2023/08/07 00:48:58;;;;;;;7.25;7.05;;;;;;;-141.02;100.00;107971.50;5133236;27;20193;-64
2023/08/07 00:51:27;;;;;;;7.78;7.57;;;;;;;-141.02;100.00;107971.50;5133344;27;20192;-64
2023/08/07 00:53:55;;;;;;;7.90;7.70;;;;;;;-141.02;100.00;107971.50;5133195;27;20188;-64
2023/08/07 00:56:24;;;;;;;7.40;7.20;;;;;;;-141.02;100.00;107971.50;5133363;27;20283;-64
2023/08/07 00:58:51;;;;;;;7.60;7.40;;;;;;;-141.02;100.00;107971.50;5133572;27;20196;-63
2023/08/07 01:01:18;;;;;;;7.70;7.50;;;;;;;-141.02;100.00;107971.50;5133295;27;20283;-64
2023/08/07 01:03:46;;;;;;;7.70;7.50;;;;;;;-141.02;100.00;107971.50;5133018;27;20288;-63
2023/08/07 01:06:13;;;;;;;7.70;7.50;;;;;;;-141.02;100.00;107971.50;5133346;27;20195;-65
2023/08/07 01:08:40;;;;;;;7.90;7.70;;;;;;;-141.02;100.00;107971.50;5133279;27;20297;-64
2023/08/07 01:11:22;;;;;;;7.90;7.70;;;;;;;-141.02;100.00;107971.50;5132949;27;20232;-65
2023/08/07 01:13:57;;;;;;;7.10;6.90;;;;;;;-141.02;100.00;107971.50;5133011;27;20611;-64
2023/08/07 01:16:32;;;;;;;7.30;7.10;;;;;;;-141.02;100.00;107971.50;5133160;27;20224;-63
2023/08/07 01:19:02;;;;;;;7.30;7.10;;;;;;;-141.02;100.00;107971.50;5132862;28;20564;-64
2023/08/07 01:21:29;;;;;;;7.30;7.10;;;;;;;-141.02;100.00;107971.50;5133439;28;20570;-66
2023/08/07 01:23:58;;;;;;;7.50;7.30;;;;;;;-141.02;100.00;107971.50;5133075;28;20200;-59
2023/08/07 01:26:25;;;;;;;7.65;7.45;;;;;;;-141.02;100.00;107971.50;5132838;28;20245;-59
2023/08/07 01:29:13;;;;;;;7.30;7.10;;;;;;;-141.02;100.00;107971.50;5133136;28;20276;-64
2023/08/07 01:31:42;;;;;;;7.40;7.20;;;;;;;-141.02;100.00;107971.50;5133656;27;20192;-64
2023/08/07 01:34:13;;;;;;;7.50;7.30;;;;;;;-141.02;100.00;107971.50;5132703;28;20200;-64
2023/08/07 01:36:41;;;;;;;7.50;7.30;;;;;;;-141.02;100.00;107971.50;5132713;28;20287;-65
2023/08/07 01:39:10;;;;;;;7.72;7.53;;;;;;;-141.02;100.00;107971.50;5132716;27;20196;-62
2023/08/07 01:41:37;;;;;;;7.40;7.20;;;;;;;-141.02;100.00;107971.50;5134317;27;20287;-64
2023/08/07 01:44:05;;;;;;;7.70;7.50;;;;;;;-141.02;100.00;107971.50;5136783;27;20199;-62
2023/08/07 01:46:32;;;;;;;8.30;8.10;;;;;;;-141.02;100.00;107971.50;5136675;27;20227;-65
2023/08/07 01:48:59;;;;;;;7.97;7.78;;;;;;;-141.02;100.00;107971.50;5136912;27;20753;-63
2023/08/07 01:51:26;;;;;;;8.10;7.90;;;;;;;-141.02;100.00;107971.50;5136884;27;20271;-65
2023/08/07 01:53:53;;;;;;;8.50;8.30;;;;;;;-141.02;100.00;107971.50;5136690;27;20314;-64
2023/08/07 01:56:30;;;;;;;8.23;8.02;;;;;;;-141.02;100.00;107971.50;5136684;27;20680;-64
2023/08/07 01:58:58;;;;;;;7.47;7.28;;;;;;;-141.02;100.00;107971.50;5136833;27;20274;-65
2023/08/07 02:04:50;;;;;;;6.50;6.30;;;;;;;-141.02;100.00;107971.50;5136012;27;20199;-64
2023/08/07 02:07:17;;;;;;;6.80;6.60;;;;;;;-141.02;100.00;107971.50;5136810;27;20275;-64
2023/08/07 02:10:30;;;;;;;;;;;;;;;;;;;;;
2023/08/07 02:13:05;;;;;;;7.45;7.25;;;;;;;-141.02;100.00;107971.50;5130239;27;20706;-63
2023/08/07 02:15:32;;;;;;;8.00;7.80;;;;;;;-141.02;100.00;107971.50;5135991;27;20654;-65
2023/08/07 02:17:59;;;;;;;8.20;8.00;;;;;;;-141.02;100.00;107971.50;5136423;27;20203;-62
2023/08/07 02:20:26;;;;;;;8.30;8.10;;;;;;;-141.02;100.00;107971.50;5136336;27;20196;-64
2023/08/07 02:22:54;;;;;;;8.25;8.05;;;;;;;-141.02;100.00;107971.50;5136420;27;20188;-63
2023/08/07 02:25:21;;;;;;;8.20;8.00;;;;;;;-141.02;100.00;107971.50;5136200;27;20279;-65
2023/08/07 02:27:47;;;;;;;8.50;8.30;;;;;;;-141.02;100.00;107971.50;5136185;27;20238;-64
2023/08/07 02:30:16;;;;;;;8.05;7.85;;;;;;;-141.02;100.00;107971.50;5136113;27;20232;-63
2023/08/07 02:36:05;;;;;;;8.02;7.82;;;;;;;-141.02;100.00;107971.50;5136165;27;20306;-65
2023/08/07 02:38:33;;;;;;;8.25;8.05;;;;;;;-141.02;100.00;107971.50;5135713;27;20269;-64
2023/08/07 02:44:22;;;;;;;8.48;8.27;;;;;;;-141.02;100.00;107971.50;5135724;27;20195;-65
2023/08/07 02:46:50;;;;;;;8.20;8.00;;;;;;;-141.02;100.00;107971.50;5135923;27;20571;-64
2023/08/07 02:49:17;;;;;;;8.52;8.32;;;;;;;-141.02;100.00;107971.50;5135492;27;20196;-63
2023/08/07 03:06:07;;;;;;;;;;;;;;;;;;;;;
2023/08/07 03:19:14;;;;;;;9.57;9.30;;;;;;;-141.02;100.00;107971.50;5068819;28;20201;-64
2023/08/07 03:21:51;;;;;;;8.45;8.25;;;;;;;-141.02;100.00;107971.50;5091787;28;20718;-62
2023/08/07 03:24:27;;;;;;;8.80;8.60;;;;;;;-141.02;100.00;107971.50;5091899;28;20227;-64
2023/08/07 03:27:06;;;;;;;7.90;7.70;;;;;;;-141.02;100.00;107971.50;5092113;28;20716;-65
2023/08/07 03:29:33;;;;;;;8.02;7.82;;;;;;;-141.02;100.00;107971.50;5091850;28;20280;-65
2023/08/07 03:35:46;;;;;;;7.70;7.50;;;;;;;-141.02;100.00;107971.50;5091816;28;20185;-65
2023/08/07 03:42:01;;;;;;;6.70;6.50;;;;;;;-141.02;100.00;107971.50;5091933;28;20185;-64
2023/08/07 03:44:53;;;;;;;6.03;5.93;;;;;;;-141.02;100.00;107971.50;5091458;28;20198;-63
2023/08/07 03:47:42;;;;;;;6.18;6.07;;;;;;;-141.02;100.00;107971.50;5134805;27;20247;-65
2023/08/07 03:54:15;;;;;;;6.00;5.90;;;;;;;-141.02;100.00;107971.50;5134307;27;20247;-65
2023/08/07 03:57:33;;;;;;;5.20;5.10;;;;;;;-141.02;100.00;107971.50;5134493;27;20685;-65
2023/08/07 04:00:30;;;;;;;5.88;5.78;;;;;;;-141.02;100.00;107971.50;5134485;27;20413;-66
2023/08/07 04:03:39;;;;;;;5.65;5.55;;;;;;;-141.02;100.00;107971.50;5134059;27;20205;-66
2023/08/07 04:06:28;;;;;;;5.50;5.40;;;;;;;-141.02;100.00;107971.50;5133119;27;20188;-66
2023/08/07 04:09:14;;;;;;;7.30;7.10;;;;;;;-141.02;100.00;107468.69;5134176;27;20670;-66
2023/08/07 04:11:51;;;;;;;8.10;7.90;;;;;;;-141.02;100.00;106967.91;5133936;27;20196;-66
2023/08/07 04:14:23;;;;;;;9.68;9.38;;;;;;;-141.02;100.00;106216.91;5134131;27;20224;-66
2023/08/07 04:16:58;;;;;;;10.60;10.30;;;;;;;-141.02;100.00;105466.03;5134057;27;20189;-65
2023/08/07 04:19:33;;;;;;;11.40;11.10;;;;;;;-141.02;100.00;104214.97;5133746;27;20571;-65
2023/08/07 04:22:05;;;;;;;13.18;12.77;;;;;;;-141.02;100.00;102964.34;5133703;27;20191;-65
2023/08/07 04:24:36;;;;;;;13.23;12.82;;;;;;;-141.02;100.00;103464.53;5133923;27;20192;-65
2023/08/07 04:27:08;;;;;;;13.63;13.23;;;;;;;-141.02;100.00;101464.19;5133545;27;20271;-66
2023/08/07 04:30:33;;;;;;;14.30;13.80;;;;;;;-141.02;100.00;97466.91;5133690;27;20235;-66
2023/08/07 04:39:51;;;;;;;14.52;14.02;;;;;;;-141.02;100.00;89486.16;5132706;27;20223;-65
2023/08/07 04:45:12;;;;;;;14.02;13.52;;;;;;;-141.02;100.00;89486.16;5131186;27;20762;-65
2023/08/07 04:47:52;;;;;;;14.60;14.10;;;;;;;-141.02;100.00;90981.13;5133348;27;20248;-62
2023/08/07 04:50:24;;;;;;;14.45;13.95;;;;;;;-141.02;100.00;89486.16;5134329;27;20204;-65
2023/08/07 04:52:57;;;;;;;14.55;14.05;;;;;;;-141.02;100.00;89735.28;5133383;27;20227;-65
2023/08/07 04:55:34;;;;;;;14.25;13.75;;;;;;;-141.02;100.00;91479.63;5133637;27;20234;-65
2023/08/07 04:58:10;;;;;;;15.32;14.73;;;;;;;-141.02;100.00;87742.81;5133710;27;20196;-65
2023/08/07 05:00:45;;;;;;;14.77;14.27;;;;;;;-141.02;100.00;86249.22;5133038;27;20216;-65
2023/08/07 05:03:19;;;;;;;13.88;13.38;;;;;;;-141.02;100.00;86249.22;5133278;27;20274;-64
2023/08/07 05:05:46;;;;;;;12.93;12.52;;;;;;;-141.02;100.00;87493.84;5132962;27;20565;-64
2023/08/07 05:08:13;;;;;;;13.48;13.07;;;;;;;-141.02;100.00;86249.22;5133430;27;20271;-66
2023/08/07 05:10:42;;;;;;;12.50;12.10;;;;;;;-141.02;100.00;89984.41;5133387;27;20252;-67
2023/08/07 05:13:09;;;;;;;11.48;11.18;;;;;;;-141.02;100.00;90482.72;5132877;28;20267;-65
2023/08/07 05:15:36;;;;;;;10.73;10.43;;;;;;;-141.02;100.00;92726.13;5133472;27;20225;-66
2023/08/07 05:18:02;;;;;;;9.98;9.68;;;;;;;-141.02;100.00;94471.97;5133231;28;20200;-66
2023/08/07 05:20:29;;;;;;;10.70;10.40;;;;;;;-141.02;100.00;95719.53;5132765;28;20227;-62
2023/08/07 05:22:57;;;;;;;11.48;11.18;;;;;;;-141.02;100.00;94471.97;5133077;28;20635;-62
2023/08/07 05:25:24;;;;;;;12.02;11.63;;;;;;;-141.02;100.00;93723.63;5132866;28;20746;-65
2023/08/07 05:27:52;;;;;;;12.90;12.50;;;;;;;-141.02;100.00;91978.16;5133388;28;20275;-65
2023/08/07 05:30:19;;;;;;;12.57;12.18;;;;;;;-141.02;100.00;92726.13;5132744;28;20192;-63
2023/08/07 05:32:46;;;;;;;12.50;12.10;;;;;;;-141.02;100.00;93474.22;5133058;28;20258;-65
2023/08/07 05:35:13;;;;;;;12.07;11.68;;;;;;;-141.02;100.00;94222.50;5132648;28;20596;-65
2023/08/07 05:37:40;;;;;;;12.00;11.60;;;;;;;-141.02;100.00;93474.22;5133081;28;20276;-65
2023/08/07 05:40:09;;;;;;;12.40;12.00;;;;;;;-141.02;100.00;91978.16;5132773;28;20193;-65
2023/08/07 05:42:36;;;;;;;12.43;12.02;;;;;;;-141.02;100.00;91479.63;5132993;27;20230;-63
2023/08/07 05:45:05;;;;;;;12.55;12.15;;;;;;;-141.02;100.00;92227.47;5132625;28;20220;-64
2023/08/07 05:47:33;;;;;;;13.07;12.57;;;;;;;-141.02;100.00;91978.16;5132945;28;20201;-63
2023/08/07 05:50:00;;;;;;;12.63;12.23;;;;;;;-141.02;100.00;90233.56;5133001;27;20192;-65
2023/08/07 05:52:27;;;;;;;12.70;12.30;;;;;;;-141.02;100.00;90731.94;5132600;28;20192;-65
2023/08/07 05:54:54;;;;;;;13.00;12.50;;;;;;;-141.02;100.00;90233.56;5132578;27;20740;-63
2023/08/07 05:57:21;;;;;;;13.30;12.80;;;;;;;-141.02;100.00;87742.81;5132861;28;20192;-64
2023/08/07 05:59:48;;;;;;;12.82;12.43;;;;;;;-141.02;100.00;90233.56;5132822;28;20196;-63
2023/08/07 06:02:17;;;;;;;18.98;17.20;;;;;;;-141.02;100.00;90731.94;5132533;28;20192;-64
2023/08/07 06:04:45;;;;;;;13.05;12.63;;;;;;;-141.02;100.00;90482.72;5132710;28;20296;-65
2023/08/07 06:07:12;;;;;;;13.10;12.60;;;;;;;-141.02;100.00;90233.56;5132494;28;20197;-64
2023/08/07 06:09:39;;;;;;;13.50;13.00;;;;;;;-141.02;100.00;88987.97;5132745;28;20193;-65
2023/08/07 06:12:06;;;;;;;13.43;12.93;;;;;;;-141.02;100.00;88987.97;5132725;28;20566;-58
2023/08/07 06:14:34;;;;;;;14.00;13.50;;;;;;;-141.02;100.00;88240.81;5132280;28;20221;-58
2023/08/07 06:17:01;;;;;;;15.10;14.40;;;;;;;-141.02;100.00;86747.00;5132622;28;20193;-66
2023/08/07 06:19:30;;;;;;;15.00;14.30;;;;;;;-141.02;100.00;83263.97;5132171;27;20196;-65
2023/08/07 06:21:57;;;;;;;15.15;14.43;;;;;;;-141.02;100.00;80281.31;5132501;28;20582;-64
2023/08/07 06:24:25;;;;;;;14.48;13.88;;;;;;;-141.02;100.00;83263.97;5132638;27;20654;-65
2023/08/07 06:26:52;;;;;;;14.27;13.68;;;;;;;-141.02;100.00;84258.75;5132417;28;20308;-64
2023/08/07 06:29:19;;;;;;;15.00;14.30;;;;;;;-141.02;100.00;82766.69;5134723;27;20241;-64
2023/08/07 06:31:46;;;;;;;14.57;13.88;;;;;;;-141.02;100.00;82518.06;5136260;27;20227;-61
2023/08/07 06:34:13;;;;;;;14.40;13.70;;;;;;;-141.02;100.00;83263.97;5135669;27;20315;-64
2023/08/07 06:36:41;;;;;;;14.98;14.27;;;;;;;-141.02;100.00;84258.75;5136377;27;20680;-65
2023/08/07 06:39:08;;;;;;;14.82;14.13;;;;;;;-141.02;100.00;82269.47;5136109;27;20275;-65
2023/08/07 06:41:35;;;;;;;14.80;14.10;;;;;;;-141.02;100.00;82269.47;5135666;27;20241;-62
2023/08/07 06:44:02;;;;;;;14.02;13.43;;;;;;;-141.02;100.00;83015.31;5135650;27;20193;-63
2023/08/07 06:46:29;;;;;;;14.20;13.60;;;;;;;-141.02;100.00;83015.31;5135880;27;20195;-65
2023/08/07 06:48:56;;;;;;;15.90;15.00;;;;;;;-141.02;100.00;80778.25;5136243;27;20194;-65
2023/08/07 06:51:23;;;;;;;15.32;14.63;;;;;;;-141.02;100.00;81772.31;5135851;27;20220;-64
2023/08/07 06:53:51;;;;;;;15.02;14.32;;;;;;;-141.02;100.00;80529.75;5135433;27;20267;-64
2023/08/07 06:56:19;;;;;;;15.13;14.32;;;;;;;-141.02;100.00;80281.31;5135427;27;20197;-64
2023/08/07 06:58:46;;;;;;;14.77;14.07;;;;;;;-141.02;100.00;79784.44;5135270;27;20284;-65
2023/08/07 07:01:13;;;;;;;14.20;13.60;;;;;;;-141.02;100.00;81275.25;5135335;27;20287;-64
2023/08/07 07:03:40;;;;;;;14.55;13.85;;;;;;;-141.02;100.00;80529.75;5135268;27;20757;-64
2023/08/07 07:06:07;;;;;;;14.77;14.07;;;;;;;-141.02;100.00;80032.88;5135554;27;20257;-65
2023/08/07 07:08:34;;;;;;;14.88;14.18;;;;;;;-141.02;100.00;78046.00;5135123;27;20748;-63
2023/08/07 07:11:04;;;;;;;14.43;13.73;;;;;;;-141.02;100.00;78790.94;5135443;27;20320;-62
2023/08/07 07:13:31;;;;;;;15.13;14.43;;;;;;;-141.02;100.00;77797.72;5135071;27;20216;-62
2023/08/07 07:15:58;;;;;;;14.70;14.00;;;;;;;-141.02;100.00;79039.28;5135003;27;20283;-64
2023/08/07 07:18:25;;;;;;;14.98;14.27;;;;;;;-141.02;100.00;79287.66;5135393;27;20254;-62
2023/08/07 07:20:58;;;;;;;15.02;14.32;;;;;;;-141.02;100.00;78790.94;5134746;27;20289;-64
2023/08/07 07:23:25;;;;;;;15.25;14.48;;;;;;;-141.02;100.00;79536.03;5134905;27;20185;-64
2023/08/07 07:25:52;;;;;;;16.45;15.55;;;;;;;-141.02;100.00;69366.97;5134810;27;20196;-63
2023/08/07 07:28:21;;;;;;;16.08;15.18;;;;;;;-141.02;100.00;74323.72;5134739;27;20193;-64
2023/08/07 07:30:48;;;;;;;15.85;15.05;;;;;;;-141.02;100.00;73579.75;5134726;27;20224;-64
2023/08/07 07:33:15;;;;;;;16.23;15.32;;;;;;;-141.02;100.00;72340.16;5134962;27;20242;-62
2023/08/07 07:35:43;;;;;;;16.20;15.30;;;;;;;-141.02;100.00;73579.75;5134661;27;20283;-63
2023/08/07 07:38:11;;;;;;;16.65;15.75;;;;;;;-141.02;98.02;70605.50;5134508;27;20643;-65
2023/08/07 07:40:39;;;;;;;16.52;15.63;;;;;;;-141.02;100.00;70853.25;5134741;27;20220;-63
2023/08/07 07:43:06;;;;;;;16.98;16.08;;;;;;;-141.02;99.52;70605.50;5134526;27;20200;-64
2023/08/07 07:45:35;;;;;;;17.08;16.08;;;;;;;-141.02;98.23;65406.75;5134724;27;20226;-63
2023/08/07 07:48:02;;;;;;;16.65;15.75;;;;;;;-141.02;100.00;70605.50;5134423;27;20193;-64
2023/08/07 07:50:29;;;;;;;18.08;17.08;;;;;;;-141.02;99.64;69119.34;5134302;27;20282;-61
2023/08/07 07:52:56;;;;;;;17.20;16.23;;;;;;;-141.02;94.00;67138.78;5134621;27;20269;-64
2023/08/07 07:55:23;;;;;;;17.88;16.88;;;;;;;-141.02;92.76;66396.38;5134482;27;20272;-63
2023/08/07 07:57:50;;;;;;;17.80;16.80;;;;;;;-141.02;92.25;66396.38;5134510;27;20193;-65
2023/08/07 08:00:19;;;;;;;18.25;17.15;;;;;;;-141.02;88.42;64664.72;5134165;27;20196;-64
2023/08/07 08:02:47;;;;;;;18.33;17.23;;;;;;;-141.02;86.86;64417.41;5134318;27;20193;-64
2023/08/07 08:05:15;;;;;;;18.58;17.48;;;;;;;-141.02;82.27;59968.94;5134056;27;20192;-63
2023/08/07 08:07:43;;;;;;;18.42;17.33;;;;;;;-141.02;83.09;59721.97;5133906;27;20617;-64
2023/08/07 08:10:11;;;;;;;18.17;17.17;;;;;;;-141.02;86.35;61698.22;5134267;27;20200;-62
2023/08/07 08:12:38;;;;;;;18.55;17.45;;;;;;;-141.02;82.74;59475.03;5133902;27;20245;-63
2023/08/07 08:15:05;;;;;;;19.17;18.08;;;;;;;-141.02;82.50;59228.09;5134320;27;20224;-64
2023/08/07 08:17:32;;;;;;;18.48;17.48;;;;;;;-141.02;79.90;59968.94;5133812;27;20193;-65
2023/08/07 08:20:01;;;;;;;18.75;17.65;;;;;;;-141.02;77.31;58468.13;5133757;27;20231;-64
2023/08/07 08:22:28;;;;;;;19.13;18.02;;;;;;;-141.02;78.04;57563.72;5134053;27;20197;-65
2023/08/07 08:24:55;;;;;;;19.02;17.92;;;;;;;-141.02;76.42;56902.41;5133676;27;20196;-64
2023/08/07 08:27:22;;;;;;;19.00;17.90;;;;;;;-141.02;75.34;54786.41;5133640;27;20245;-66
2023/08/07 08:29:49;;;;;;;18.58;17.58;;;;;;;-141.02;75.17;54220.03;5133636;27;20197;-66
2023/08/07 08:32:16;;;;;;;18.90;17.80;;;;;;;-141.02;75.61;54418.44;5133804;27;20283;-65
2023/08/07 08:34:43;;;;;;;18.50;17.50;;;;;;;-141.02;73.68;51978.66;5133796;27;20666;-65
2023/08/07 08:37:12;;;;;;;18.52;17.52;;;;;;;-141.02;77.18;53014.44;5133799;27;20278;-64
2023/08/07 08:39:39;;;;;;;18.73;17.58;;;;;;;-141.02;73.29;52637.06;5133422;27;20654;-65
2023/08/07 08:42:06;;;;;;;18.85;17.85;;;;;;;-141.02;71.57;52209.66;5133755;27;20196;-65
2023/08/07 08:44:38;;;;;;;18.67;17.67;;;;;;;-141.02;71.49;51953.63;5133555;27;20195;-64
2023/08/07 08:47:07;;;;;;;19.27;18.27;;;;;;;-141.02;69.36;51360.78;5133735;27;20263;-65
2023/08/07 08:49:38;;;;;;;19.40;18.40;;;;;;;-141.02;71.48;51528.25;5133583;27;20204;-65
2023/08/07 08:52:06;;;;;;;19.00;18.00;;;;;;;-141.02;71.49;50723.81;5132804;27;20180;-65
2023/08/07 08:54:36;;;;;;;19.35;18.35;;;;;;;-141.02;71.67;49494.44;5133445;27;20278;-65
2023/08/07 08:57:04;;;;;;;19.38;18.38;;;;;;;-141.02;69.87;49959.97;5133606;27;20279;-65
2023/08/07 08:59:32;;;;;;;19.25;18.25;;;;;;;-141.02;69.90;53095.31;5133319;27;20198;-65
2023/08/07 09:02:00;;;;;;;19.35;18.35;;;;;;;-141.02;67.94;51439.69;5133104;27;20200;-65
2023/08/07 09:04:27;;;;;;;19.90;18.90;;;;;;;-141.02;66.04;49559.84;5133069;27;20678;-65
2023/08/07 09:06:54;;;;;;;20.40;19.40;;;;;;;-141.02;64.45;49173.22;5133450;27;20264;-64
2023/08/07 09:09:22;;;;;;;19.80;18.80;;;;;;;-141.02;64.95;48492.44;5133371;27;20279;-65
2023/08/07 09:11:52;;;;;;;20.60;19.60;;;;;;;-141.02;66.12;49309.78;5133277;27;20227;-65
2023/08/07 09:14:30;;;;;;;19.67;18.58;;;;;;;-141.02;64.36;47923.28;5133130;27;20235;-66
2023/08/07 09:17:00;;;;;;;20.63;19.63;;;;;;;-141.02;61.95;47629.13;5133461;28;20198;-65
2023/08/07 09:19:27;;;;;;;20.10;19.10;;;;;;;-141.02;65.23;49796.44;5132905;28;20227;-66
2023/08/07 09:21:55;;;;;;;21.13;20.02;;;;;;;-141.02;59.66;48400.13;5133115;28;20705;-66
2023/08/07 09:24:22;;;;;;;20.95;19.85;;;;;;;-141.02;58.06;46500.81;5133190;27;20231;-65
2023/08/07 09:26:52;;;;;;;19.45;18.45;;;;;;;-141.02;58.27;46254.81;5132859;28;20654;-65
2023/08/07 09:29:21;;;;;;;20.58;19.58;;;;;;;-141.02;59.87;46619.97;5132831;28;20642;-65
2023/08/07 09:31:48;;;;;;;20.77;19.77;;;;;;;-141.02;57.08;46354.75;5133352;27;20196;-66
2023/08/07 09:34:17;;;;;;;20.90;19.90;;;;;;;-141.02;56.38;46545.00;5132623;28;20256;-64
2023/08/07 09:36:45;;;;;;;21.00;19.90;;;;;;;-141.02;55.89;45524.66;5133099;28;20200;-66
2023/08/07 09:39:14;;;;;;;19.30;18.30;;;;;;;-141.02;56.67;46293.25;5132969;27;20192;-66
2023/08/07 09:41:41;;;;;;;21.20;20.10;;;;;;;-141.02;53.99;45296.03;5133288;27;20219;-65
2023/08/07 09:44:11;;;;;;;21.52;20.42;;;;;;;-141.02;54.47;44794.66;5132650;28;20196;-66
2023/08/07 09:46:45;;;;;;;21.38;20.27;;;;;;;-141.02;55.65;44571.84;5132698;28;20689;-66
2023/08/07 09:49:12;;;;;;;21.20;20.10;;;;;;;-141.02;55.03;44798.50;5132621;28;20662;-65
2023/08/07 09:51:43;;;;;;;21.40;20.30;;;;;;;-141.02;53.79;45194.22;5132922;27;20292;-66
2023/08/07 09:54:10;;;;;;;21.33;20.23;;;;;;;-141.02;51.65;44180.03;5132563;28;20219;-66
2023/08/07 09:56:37;;;;;;;21.23;20.13;;;;;;;-141.02;52.42;43780.59;5133112;27;20254;-66
2023/08/07 09:59:05;;;;;;;20.85;19.85;;;;;;;-141.02;52.70;43767.16;5132854;27;20280;-66
2023/08/07 10:01:37;;;;;;;20.88;19.88;;;;;;;-141.02;52.42;43469.50;5132431;28;20249;-66
2023/08/07 10:04:05;;;;;;;21.35;20.25;;;;;;;-141.02;51.26;43486.78;5134612;27;20184;-67
2023/08/07 10:06:32;;;;;;;20.65;19.60;;;;;;;-141.02;52.26;43394.63;5136964;27;20193;-66
2023/08/07 10:09:01;;;;;;;20.10;19.10;;;;;;;-141.02;50.21;43680.72;5136611;27;20291;-67
2023/08/07 10:11:29;;;;;;;19.95;18.95;;;;;;;-141.02;51.90;43734.50;5136641;27;20246;-67
2023/08/07 10:13:57;;;;;;;20.27;19.27;;;;;;;-141.02;48.98;43116.22;5136100;27;20234;-66
2023/08/07 10:16:25;;;;;;;20.30;19.20;;;;;;;-141.02;50.03;43342.78;5136237;27;20213;-67
2023/08/07 10:18:53;;;;;;;20.17;19.17;;;;;;;-141.02;50.67;43237.19;5136134;27;20189;-67
2023/08/07 10:21:21;;;;;;;19.95;18.95;;;;;;;-141.02;50.56;43189.19;5136321;27;20307;-67
2023/08/07 10:23:52;;;;;;;19.92;18.92;;;;;;;-141.02;51.08;43102.78;5136386;27;20228;-66
2023/08/07 10:26:20;;;;;;;20.65;19.55;;;;;;;-141.02;50.31;43039.44;5136302;27;20224;-66
2023/08/07 10:28:49;;;;;;;20.65;19.55;;;;;;;-141.02;49.98;43231.44;5136238;27;20196;-66
2023/08/07 10:31:17;;;;;;;20.02;19.02;;;;;;;-141.02;48.14;43354.31;5135933;27;20184;-65
2023/08/07 10:33:44;;;;;;;20.90;19.90;;;;;;;-141.02;47.87;43012.56;5136210;27;20565;-67
2023/08/07 10:36:13;;;;;;;20.75;19.65;;;;;;;-141.02;47.68;42874.34;5136086;27;20311;-68
2023/08/07 10:38:39;;;;;;;20.08;19.08;;;;;;;-141.02;47.41;42874.34;5135790;27;20204;-67
2023/08/07 10:41:10;;;;;;;20.55;19.45;;;;;;;-141.02;48.52;42897.38;5136015;27;20271;-68
2023/08/07 10:43:39;;;;;;;20.25;19.25;;;;;;;-141.02;47.13;42655.47;5135764;27;20271;-69
2023/08/07 10:46:06;;;;;;;20.88;19.77;;;;;;;-141.02;48.00;42782.19;5135716;27;20239;-68
2023/08/07 10:48:43;;;;;;;20.30;19.20;;;;;;;-141.02;48.64;42931.94;5135814;27;20198;-68
2023/08/07 10:51:15;;;;;;;20.33;19.23;;;;;;;-141.02;48.07;42576.78;5135702;27;20184;-68
2023/08/07 10:53:45;;;;;;;20.13;19.02;;;;;;;-141.02;48.63;42878.16;5135490;27;20200;-68
2023/08/07 10:56:15;;;;;;;20.20;19.10;;;;;;;-141.02;48.57;42736.13;5135749;27;20256;-69
2023/08/07 10:58:43;;;;;;;20.42;19.33;;;;;;;-141.02;49.05;42732.28;5135742;27;20271;-68
2023/08/07 11:01:28;;;;;;;20.00;19.00;;;;;;;-141.02;48.12;42686.19;5135388;27;20631;-69
2023/08/07 11:03:57;;;;;;;19.73;18.70;;;;;;;-141.02;49.00;42728.44;5135368;27;20283;-70
2023/08/07 11:06:27;;;;;;;20.02;18.92;;;;;;;-141.02;47.37;42691.97;5135264;27;20279;-67
2023/08/07 11:08:55;;;;;;;19.75;18.65;;;;;;;-141.02;49.46;42594.06;5135108;27;20203;-69
2023/08/07 11:11:22;;;;;;;19.73;18.63;;;;;;;-141.02;48.64;42724.59;5135173;27;20639;-69
2023/08/07 11:13:49;;;;;;;19.60;18.60;;;;;;;-141.02;49.37;42939.59;5134916;27;20654;-70
2023/08/07 11:16:16;;;;;;;19.67;18.65;;;;;;;-141.02;48.04;42939.59;5135056;27;20656;-68
2023/08/07 11:18:43;;;;;;;19.88;18.77;;;;;;;-141.02;48.81;42667.00;5135035;27;20192;-71
2023/08/07 11:21:11;;;;;;;19.38;18.38;;;;;;;-141.02;48.20;42672.75;5135134;27;20316;-69
2023/08/07 11:23:40;;;;;;;19.73;18.63;;;;;;;-141.02;49.57;42930.00;5135244;27;20197;-68
2023/08/07 11:26:07;;;;;;;19.77;18.67;;;;;;;-141.02;48.70;42828.25;5135166;27;20243;-69
2023/08/07 11:28:34;;;;;;;19.90;18.80;;;;;;;-141.02;48.70;42862.81;5134953;27;20188;-57
2023/08/07 11:31:02;;;;;;;19.30;18.30;;;;;;;-141.02;48.81;42574.88;5135016;27;20271;-57
2023/08/07 11:33:30;;;;;;;19.85;18.75;;;;;;;-141.02;48.00;42906.97;5134925;27;20279;-57
2023/08/07 11:35:58;;;;;;;19.55;18.45;;;;;;;-141.02;50.27;43304.38;5134844;27;20224;-68
2023/08/07 11:38:32;;;;;;;19.52;18.42;;;;;;;-141.02;50.33;42970.31;5134638;27;20196;-68
2023/08/07 11:41:01;;;;;;;19.35;18.25;;;;;;;-141.02;50.44;42887.78;5134544;27;20663;-68
2023/08/07 11:43:30;;;;;;;19.10;18.10;;;;;;;-141.02;49.04;42874.34;5134485;27;20287;-70
2023/08/07 11:45:59;;;;;;;18.92;17.92;;;;;;;-141.02;49.66;42574.88;5134740;27;20211;-70
2023/08/07 11:48:27;;;;;;;19.27;18.20;;;;;;;-141.02;49.34;42590.22;5134390;27;20737;-69
2023/08/07 11:50:54;;;;;;;19.17;18.17;;;;;;;-141.02;49.90;42548.00;5134684;27;20271;-70
2023/08/07 11:53:21;;;;;;;19.70;18.60;;;;;;;-141.02;51.56;42546.06;5134611;27;20253;-68
2023/08/07 11:55:53;;;;;;;19.30;18.20;;;;;;;-141.02;52.04;42645.88;5134480;27;20227;-70
2023/08/07 11:58:22;;;;;;;18.83;17.83;;;;;;;-141.02;52.24;42655.47;5134287;27;20220;-70
2023/08/07 12:00:49;;;;;;;19.15;18.05;;;;;;;-141.02;50.35;42690.03;5134465;27;20280;-68
2023/08/07 12:03:29;;;;;;;18.85;17.85;;;;;;;-141.02;50.06;42605.56;5134418;27;20580;-70
2023/08/07 12:05:58;;;;;;;19.15;18.05;;;;;;;-141.02;49.78;42496.16;5134407;27;20295;-67
2023/08/07 12:08:25;;;;;;;19.17;18.08;;;;;;;-141.02;50.85;42605.56;5134348;27;20224;-68
2023/08/07 12:10:52;;;;;;;19.08;17.98;;;;;;;-141.02;50.64;42544.16;5133892;27;20289;-70
2023/08/07 12:13:26;;;;;;;19.05;18.05;;;;;;;-141.02;51.57;42484.63;5133974;27;20279;-71
2023/08/07 12:15:55;;;;;;;19.45;18.35;;;;;;;-141.02;52.96;42417.47;5133780;27;20212;-70
2023/08/07 12:18:23;;;;;;;19.20;18.20;;;;;;;-141.02;53.28;42402.09;5134144;27;20642;-69
2023/08/07 12:20:51;;;;;;;19.42;18.33;;;;;;;-141.02;53.86;42346.44;5133861;27;20311;-69